sensor_id;sensor_type;location;lat;lon;timestamp;pressure;altitude;pressure_sealevel;temperature;humidity
61478;BME280;47345;52.334;10.392;2024-03-23T00:54:03;100124.68;;;8.40;94.82
61478;BME280;47345;52.334;10.392;2024-03-23T00:56:33;100118.43;;;8.39;94.28
61478;BME280;47345;52.334;10.392;2024-03-23T00:59:03;100117.17;;;8.38;94.08
61478;BME280;47345;52.334;10.392;2024-03-23T01:01:33;100112.89;;;8.36;93.83
61478;BME280;47345;52.334;10.392;2024-03-23T01:04:03;100109.29;;;8.34;93.67
61478;BME280;47345;52.334;10.392;2024-03-23T01:06:33;100105.34;;;8.30;93.21
61478;BME280;47345;52.334;10.392;2024-03-23T01:09:04;100102.20;;;8.27;93.83
61478;BME280;47345;52.334;10.392;2024-03-23T01:11:34;100095.86;;;8.25;93.67
61478;BME280;47345;52.334;10.392;2024-03-23T01:14:04;100097.53;;;8.23;93.49
61478;BME280;47345;52.334;10.392;2024-03-23T01:16:34;100090.45;;;8.23;93.49
61478;BME280;47345;52.334;10.392;2024-03-23T01:19:04;100079.92;;;8.24;93.45
61478;BME280;47345;52.334;10.392;2024-03-23T01:21:35;100079.29;;;8.25;93.33
61478;BME280;47345;52.334;10.392;2024-03-23T01:24:07;100081.56;;;8.25;93.14
61478;BME280;47345;52.334;10.392;2024-03-23T01:26:39;100080.13;;;8.25;92.76
61478;BME280;47345;52.334;10.392;2024-03-23T01:29:09;100069.48;;;8.25;92.69
61478;BME280;47345;52.334;10.392;2024-03-23T01:31:40;100068.78;;;8.25;92.25
61478;BME280;47345;52.334;10.392;2024-03-23T01:34:10;100065.54;;;8.22;91.64
61478;BME280;47345;52.334;10.392;2024-03-23T01:36:40;100059.84;;;8.21;91.76
61478;BME280;47345;52.334;10.392;2024-03-23T01:39:10;100052.16;;;8.19;91.34
61478;BME280;47345;52.334;10.392;2024-03-23T01:41:40;100048.48;;;8.19;91.28
61478;BME280;47345;52.334;10.392;2024-03-23T01:44:11;100050.90;;;8.18;91.35
61478;BME280;47345;52.334;10.392;2024-03-23T01:46:41;100050.15;;;8.18;90.92
61478;BME280;47345;52.334;10.392;2024-03-23T01:49:12;100043.34;;;8.17;90.80
61478;BME280;47345;52.334;10.392;2024-03-23T01:51:42;100037.91;;;8.13;90.35
61478;BME280;47345;52.334;10.392;2024-03-23T01:54:13;100037.04;;;8.11;90.24
61478;BME280;47345;52.334;10.392;2024-03-23T01:56:43;100030.99;;;8.10;90.09
61478;BME280;47345;52.334;10.392;2024-03-23T01:59:14;100026.77;;;8.09;90.05
61478;BME280;47345;52.334;10.392;2024-03-23T02:01:44;100028.06;;;8.07;89.79
61478;BME280;47345;52.334;10.392;2024-03-23T02:04:14;100025.76;;;8.07;90.22
61478;BME280;47345;52.334;10.392;2024-03-23T02:06:44;100027.55;;;8.07;90.26
61478;BME280;47345;52.334;10.392;2024-03-23T02:09:14;100024.33;;;8.10;90.35
61478;BME280;47345;52.334;10.392;2024-03-23T02:11:44;100017.88;;;8.09;90.13
61478;BME280;47345;52.334;10.392;2024-03-23T02:14:14;100013.05;;;8.07;89.65
61478;BME280;47345;52.334;10.392;2024-03-23T02:16:44;100005.10;;;8.04;89.52
61478;BME280;47345;52.334;10.392;2024-03-23T02:19:16;99999.14;;;8.00;89.65
61478;BME280;47345;52.334;10.392;2024-03-23T02:21:46;100000.48;;;7.96;89.90
61478;BME280;47345;52.334;10.392;2024-03-23T02:24:16;100003.34;;;7.94;90.43
61478;BME280;47345;52.334;10.392;2024-03-23T02:26:46;100004.44;;;7.94;90.63
61478;BME280;47345;52.334;10.392;2024-03-23T02:29:17;100002.42;;;7.93;90.63
61478;BME280;47345;52.334;10.392;2024-03-23T02:31:48;99996.77;;;7.92;90.87
61478;BME280;47345;52.334;10.392;2024-03-23T02:34:18;99990.10;;;7.93;90.90
61478;BME280;47345;52.334;10.392;2024-03-23T02:36:48;99984.36;;;7.94;91.20
61478;BME280;47345;52.334;10.392;2024-03-23T02:39:18;99985.41;;;7.94;91.27
61478;BME280;47345;52.334;10.392;2024-03-23T02:41:48;99991.64;;;7.95;91.40
61478;BME280;47345;52.334;10.392;2024-03-23T02:44:18;99987.63;;;7.95;91.53
61478;BME280;47345;52.334;10.392;2024-03-23T02:46:48;99983.30;;;7.96;91.59
61478;BME280;47345;52.334;10.392;2024-03-23T02:49:18;99976.55;;;7.96;91.39
61478;BME280;47345;52.334;10.392;2024-03-23T02:51:50;99971.58;;;7.95;91.50
61478;BME280;47345;52.334;10.392;2024-03-23T02:54:20;99970.33;;;7.94;91.43
61478;BME280;47345;52.334;10.392;2024-03-23T02:56:50;99966.10;;;7.93;91.51
61478;BME280;47345;52.334;10.392;2024-03-23T02:59:20;99965.55;;;7.92;91.33
61478;BME280;47345;52.334;10.392;2024-03-23T03:01:50;99964.41;;;7.90;91.27
61478;BME280;47345;52.334;10.392;2024-03-23T03:04:20;99960.77;;;7.87;91.12
61478;BME280;47345;52.334;10.392;2024-03-23T03:06:50;99961.30;;;7.87;91.68
61478;BME280;47345;52.334;10.392;2024-03-23T03:09:20;99954.73;;;7.87;91.83
61478;BME280;47345;52.334;10.392;2024-03-23T03:11:50;99950.88;;;7.88;91.94
61478;BME280;47345;52.334;10.392;2024-03-23T03:14:20;99951.92;;;7.88;91.88
61478;BME280;47345;52.334;10.392;2024-03-23T03:16:50;99950.96;;;7.90;91.60
61478;BME280;47345;52.334;10.392;2024-03-23T03:19:20;99947.58;;;7.88;91.69
61478;BME280;47345;52.334;10.392;2024-03-23T03:21:50;99946.77;;;7.87;91.54
61478;BME280;47345;52.334;10.392;2024-03-23T03:24:20;99943.09;;;7.86;91.34
61478;BME280;47345;52.334;10.392;2024-03-23T03:26:50;99944.22;;;7.84;91.49
61478;BME280;47345;52.334;10.392;2024-03-23T03:29:20;99941.08;;;7.82;91.34
61478;BME280;47345;52.334;10.392;2024-03-23T03:31:50;99936.52;;;7.80;91.04
61478;BME280;47345;52.334;10.392;2024-03-23T03:34:20;99937.47;;;7.78;91.41
61478;BME280;47345;52.334;10.392;2024-03-23T03:36:50;99932.36;;;7.77;91.47
61478;BME280;47345;52.334;10.392;2024-03-23T03:39:20;99930.55;;;7.75;91.57
61478;BME280;47345;52.334;10.392;2024-03-23T03:41:51;99936.55;;;7.75;91.65
61478;BME280;47345;52.334;10.392;2024-03-23T03:44:22;99927.04;;;7.73;91.56
61478;BME280;47345;52.334;10.392;2024-03-23T03:46:51;99924.81;;;7.69;91.30
61478;BME280;47345;52.334;10.392;2024-03-23T03:49:21;99931.46;;;7.66;91.20
61478;BME280;47345;52.334;10.392;2024-03-23T03:51:51;99935.48;;;7.63;91.44
61478;BME280;47345;52.334;10.392;2024-03-23T03:54:21;99936.65;;;7.60;91.34
61478;BME280;47345;52.334;10.392;2024-03-23T03:56:51;99932.41;;;7.57;91.44
61478;BME280;47345;52.334;10.392;2024-03-23T03:59:21;99931.92;;;7.56;91.36
61478;BME280;47345;52.334;10.392;2024-03-23T04:01:54;99931.88;;;7.54;91.44
61478;BME280;47345;52.334;10.392;2024-03-23T04:04:26;99926.30;;;7.53;91.45
61478;BME280;47345;52.334;10.392;2024-03-23T04:10:44;99914.44;;;7.44;91.34
61478;BME280;47345;52.334;10.392;2024-03-23T04:13:15;99916.83;;;7.40;91.36
61478;BME280;47345;52.334;10.392;2024-03-23T04:15:45;99908.70;;;7.35;91.51
61478;BME280;47345;52.334;10.392;2024-03-23T04:18:15;99903.55;;;7.32;91.60
61478;BME280;47345;52.334;10.392;2024-03-23T04:20:45;99908.02;;;7.30;91.78
61478;BME280;47345;52.334;10.392;2024-03-23T04:23:15;99906.34;;;7.29;91.87
61478;BME280;47345;52.334;10.392;2024-03-23T04:25:45;99904.83;;;7.26;92.14
61478;BME280;47345;52.334;10.392;2024-03-23T04:28:15;99897.41;;;7.24;92.09
61478;BME280;47345;52.334;10.392;2024-03-23T04:30:45;99889.59;;;7.24;92.36
61478;BME280;47345;52.334;10.392;2024-03-23T04:33:15;99892.02;;;7.26;92.50
61478;BME280;47345;52.334;10.392;2024-03-23T04:35:44;99891.85;;;7.25;92.43
61478;BME280;47345;52.334;10.392;2024-03-23T04:38:18;99889.47;;;7.26;92.40
61478;BME280;47345;52.334;10.392;2024-03-23T04:40:56;99891.27;;;7.26;92.53
61478;BME280;47345;52.334;10.392;2024-03-23T04:43:26;99890.23;;;7.28;92.76
61478;BME280;47345;52.334;10.392;2024-03-23T04:45:56;99887.13;;;7.30;92.53
61478;BME280;47345;52.334;10.392;2024-03-23T04:48:26;99886.22;;;7.31;92.79
61478;BME280;47345;52.334;10.392;2024-03-23T04:50:59;99889.27;;;7.34;92.65
61478;BME280;47345;52.334;10.392;2024-03-23T04:53:29;99890.99;;;7.35;92.36
61478;BME280;47345;52.334;10.392;2024-03-23T04:55:59;99886.27;;;7.35;92.31
61478;BME280;47345;52.334;10.392;2024-03-23T04:58:29;99874.84;;;7.36;92.35
61478;BME280;47345;52.334;10.392;2024-03-23T05:00:59;99868.69;;;7.38;92.47
61478;BME280;47345;52.334;10.392;2024-03-23T05:03:28;99866.42;;;7.39;92.27
61478;BME280;47345;52.334;10.392;2024-03-23T05:05:58;99874.80;;;7.41;91.88
61478;BME280;47345;52.334;10.392;2024-03-23T05:08:29;99863.29;;;7.40;92.48
61478;BME280;47345;52.334;10.392;2024-03-23T05:10:59;99864.74;;;7.41;92.59
61478;BME280;47345;52.334;10.392;2024-03-23T05:13:29;99860.10;;;7.39;92.21
61478;BME280;47345;52.334;10.392;2024-03-23T05:15:58;99853.52;;;7.33;91.83
61478;BME280;47345;52.334;10.392;2024-03-23T05:18:29;99857.78;;;7.21;91.29
61478;BME280;47345;52.334;10.392;2024-03-23T05:20:59;99865.48;;;7.08;91.14
61478;BME280;47345;52.334;10.392;2024-03-23T05:23:30;99865.59;;;6.98;90.68
61478;BME280;47345;52.334;10.392;2024-03-23T05:26:00;99867.88;;;6.89;90.19
61478;BME280;47345;52.334;10.392;2024-03-23T05:28:30;99866.21;;;6.79;90.03
61478;BME280;47345;52.334;10.392;2024-03-23T05:31:00;99860.05;;;6.73;89.91
61478;BME280;47345;52.334;10.392;2024-03-23T05:33:30;99854.18;;;6.69;90.18
61478;BME280;47345;52.334;10.392;2024-03-23T05:36:00;99852.66;;;6.65;90.19
61478;BME280;47345;52.334;10.392;2024-03-23T05:38:32;99852.55;;;6.60;90.07
61478;BME280;47345;52.334;10.392;2024-03-23T05:41:02;99851.84;;;6.60;90.24
61478;BME280;47345;52.334;10.392;2024-03-23T05:43:32;99846.49;;;6.61;90.26
61478;BME280;47345;52.334;10.392;2024-03-23T05:46:02;99841.58;;;6.62;90.10
61478;BME280;47345;52.334;10.392;2024-03-23T05:48:33;99841.23;;;6.61;89.78
61478;BME280;47345;52.334;10.392;2024-03-23T05:51:04;99852.14;;;6.62;89.57
61478;BME280;47345;52.334;10.392;2024-03-23T05:53:34;99853.20;;;6.64;89.42
61478;BME280;47345;52.334;10.392;2024-03-23T05:56:05;99858.09;;;6.65;89.49
61478;BME280;47345;52.334;10.392;2024-03-23T05:58:35;99857.86;;;6.67;89.54
61478;BME280;47345;52.334;10.392;2024-03-23T06:01:05;99859.98;;;6.68;89.59
61478;BME280;47345;52.334;10.392;2024-03-23T06:03:36;99865.58;;;6.66;89.67
61478;BME280;47345;52.334;10.392;2024-03-23T06:06:06;99868.45;;;6.64;89.26
61478;BME280;47345;52.334;10.392;2024-03-23T06:08:40;99864.42;;;6.60;88.59
61478;BME280;47345;52.334;10.392;2024-03-23T06:11:10;99862.30;;;6.51;87.31
61478;BME280;47345;52.334;10.392;2024-03-23T06:13:40;99860.41;;;6.40;86.38
61478;BME280;47345;52.334;10.392;2024-03-23T06:16:12;99857.84;;;6.28;85.39
61478;BME280;47345;52.334;10.392;2024-03-23T06:18:42;99851.86;;;6.20;86.32
61478;BME280;47345;52.334;10.392;2024-03-23T06:21:15;99847.66;;;6.16;86.57
61478;BME280;47345;52.334;10.392;2024-03-23T06:23:46;99850.45;;;6.14;86.51
61478;BME280;47345;52.334;10.392;2024-03-23T06:26:20;99851.23;;;6.10;85.07
61478;BME280;47345;52.334;10.392;2024-03-23T06:28:50;99851.20;;;6.07;84.96
61478;BME280;47345;52.334;10.392;2024-03-23T06:31:20;99857.92;;;6.05;84.70
61478;BME280;47345;52.334;10.392;2024-03-23T06:33:50;99851.11;;;6.04;84.84
61478;BME280;47345;52.334;10.392;2024-03-23T06:36:20;99851.46;;;6.08;85.19
61478;BME280;47345;52.334;10.392;2024-03-23T06:38:50;99847.70;;;6.09;85.45
61478;BME280;47345;52.334;10.392;2024-03-23T06:41:21;99850.70;;;6.11;83.32
61478;BME280;47345;52.334;10.392;2024-03-23T06:43:55;99848.21;;;6.09;83.45
61478;BME280;47345;52.334;10.392;2024-03-23T06:46:27;99846.22;;;6.10;83.59
61478;BME280;47345;52.334;10.392;2024-03-23T06:48:57;99844.14;;;6.13;83.43
61478;BME280;47345;52.334;10.392;2024-03-23T06:51:27;99837.48;;;6.16;83.34
61478;BME280;47345;52.334;10.392;2024-03-23T06:53:58;99838.61;;;6.27;83.63
61478;BME280;47345;52.334;10.392;2024-03-23T06:56:28;99831.39;;;6.37;83.66
61478;BME280;47345;52.334;10.392;2024-03-23T06:58:58;99828.73;;;6.50;83.61
61478;BME280;47345;52.334;10.392;2024-03-23T07:01:31;99827.70;;;6.65;84.00
61478;BME280;47345;52.334;10.392;2024-03-23T07:04:01;99829.71;;;6.79;83.80
61478;BME280;47345;52.334;10.392;2024-03-23T07:06:31;99839.48;;;6.94;83.83
61478;BME280;47345;52.334;10.392;2024-03-23T07:09:01;99843.36;;;7.04;83.65
61478;BME280;47345;52.334;10.392;2024-03-23T07:11:31;99839.23;;;7.14;83.38
61478;BME280;47345;52.334;10.392;2024-03-23T07:14:07;99839.70;;;7.21;83.09
61478;BME280;47345;52.334;10.392;2024-03-23T07:16:39;99846.91;;;7.28;82.79
61478;BME280;47345;52.334;10.392;2024-03-23T07:19:10;99843.73;;;7.34;82.62
61478;BME280;47345;52.334;10.392;2024-03-23T07:21:47;99846.67;;;7.38;82.09
61478;BME280;47345;52.334;10.392;2024-03-23T07:24:17;99847.25;;;7.42;81.52
61478;BME280;47345;52.334;10.392;2024-03-23T07:26:50;99845.06;;;7.46;81.49
61478;BME280;47345;52.334;10.392;2024-03-23T07:29:23;99845.79;;;7.51;81.48
61478;BME280;47345;52.334;10.392;2024-03-23T07:31:55;99848.80;;;7.61;81.23
61478;BME280;47345;52.334;10.392;2024-03-23T07:34:27;99842.89;;;7.72;81.07
61478;BME280;47345;52.334;10.392;2024-03-23T07:36:57;99844.02;;;7.79;80.41
61478;BME280;47345;52.334;10.392;2024-03-23T07:39:27;99850.77;;;7.86;80.45
61478;BME280;47345;52.334;10.392;2024-03-23T07:41:57;99851.51;;;7.89;80.48
61478;BME280;47345;52.334;10.392;2024-03-23T07:44:27;99850.23;;;7.94;80.21
61478;BME280;47345;52.334;10.392;2024-03-23T07:46:58;99855.58;;;7.99;80.21
61478;BME280;47345;52.334;10.392;2024-03-23T07:49:28;99858.39;;;8.00;79.50
61478;BME280;47345;52.334;10.392;2024-03-23T07:51:58;99856.77;;;7.98;79.26
61478;BME280;47345;52.334;10.392;2024-03-23T07:54:28;99855.58;;;7.99;79.24
61478;BME280;47345;52.334;10.392;2024-03-23T07:56:58;99848.91;;;8.03;79.13
61478;BME280;47345;52.334;10.392;2024-03-23T07:59:28;99849.08;;;8.06;78.60
61478;BME280;47345;52.334;10.392;2024-03-23T08:02:00;99854.77;;;8.08;78.17
61478;BME280;47345;52.334;10.392;2024-03-23T08:04:30;99849.00;;;8.06;77.77
61478;BME280;47345;52.334;10.392;2024-03-23T08:07:00;99850.96;;;8.06;77.96
61478;BME280;47345;52.334;10.392;2024-03-23T08:09:30;99852.08;;;8.10;77.73
61478;BME280;47345;52.334;10.392;2024-03-23T08:12:00;99855.02;;;8.13;77.37
61478;BME280;47345;52.334;10.392;2024-03-23T08:14:31;99858.73;;;8.17;77.27
61478;BME280;47345;52.334;10.392;2024-03-23T08:17:01;99863.00;;;8.26;77.47
61478;BME280;47345;52.334;10.392;2024-03-23T08:19:31;99864.61;;;8.33;77.42
61478;BME280;47345;52.334;10.392;2024-03-23T08:22:01;99863.88;;;8.39;77.34
61478;BME280;47345;52.334;10.392;2024-03-23T08:24:31;99855.77;;;8.47;77.37
61478;BME280;47345;52.334;10.392;2024-03-23T08:27:02;99850.34;;;8.57;77.10
61478;BME280;47345;52.334;10.392;2024-03-23T08:29:33;99841.70;;;8.66;76.89
61478;BME280;47345;52.334;10.392;2024-03-23T08:32:03;99839.82;;;8.74;76.48
61478;BME280;47345;52.334;10.392;2024-03-23T08:34:33;99834.56;;;8.78;76.49
61478;BME280;47345;52.334;10.392;2024-03-23T08:37:03;99826.34;;;8.86;76.77
61478;BME280;47345;52.334;10.392;2024-03-23T08:39:33;99827.42;;;8.95;76.56
61478;BME280;47345;52.334;10.392;2024-03-23T08:42:04;99824.14;;;9.07;76.78
61478;BME280;47345;52.334;10.392;2024-03-23T08:44:34;99831.64;;;9.22;76.66
61478;BME280;47345;52.334;10.392;2024-03-23T08:47:05;99836.26;;;9.41;76.77
61478;BME280;47345;52.334;10.392;2024-03-23T08:49:35;99835.72;;;9.61;76.43
61478;BME280;47345;52.334;10.392;2024-03-23T08:52:06;99834.08;;;9.78;76.29
61478;BME280;47345;52.334;10.392;2024-03-23T08:54:36;99837.09;;;9.89;75.83
61478;BME280;47345;52.334;10.392;2024-03-23T08:57:06;99844.05;;;9.86;75.73
61478;BME280;47345;52.334;10.392;2024-03-23T08:59:37;99853.52;;;9.75;75.62
61478;BME280;47345;52.334;10.392;2024-03-23T09:02:07;99852.09;;;9.66;75.81
61478;BME280;47345;52.334;10.392;2024-03-23T09:04:37;99850.95;;;9.47;75.97
61478;BME280;47345;52.334;10.392;2024-03-23T09:07:07;99844.27;;;9.24;76.53
61478;BME280;47345;52.334;10.392;2024-03-23T09:09:39;99842.29;;;8.99;77.05
61478;BME280;47345;52.334;10.392;2024-03-23T09:12:09;99845.58;;;8.81;76.93
61478;BME280;47345;52.334;10.392;2024-03-23T09:14:40;99849.02;;;8.71;76.38
61478;BME280;47345;52.334;10.392;2024-03-23T09:17:10;99848.17;;;8.67;77.04
61478;BME280;47345;52.334;10.392;2024-03-23T09:19:39;99855.69;;;8.71;77.31
61478;BME280;47345;52.334;10.392;2024-03-23T09:22:09;99855.92;;;8.84;77.67
61478;BME280;47345;52.334;10.392;2024-03-23T09:24:41;99857.14;;;9.05;77.72
61478;BME280;47345;52.334;10.392;2024-03-23T09:27:11;99861.94;;;9.23;77.64
61478;BME280;47345;52.334;10.392;2024-03-23T09:29:40;99861.62;;;9.35;77.67
61478;BME280;47345;52.334;10.392;2024-03-23T09:32:10;99864.46;;;9.37;76.88
61478;BME280;47345;52.334;10.392;2024-03-23T09:34:40;99867.95;;;9.43;77.13
61478;BME280;47345;52.334;10.392;2024-03-23T09:37:11;99861.59;;;9.54;77.12
61478;BME280;47345;52.334;10.392;2024-03-23T09:39:41;99862.77;;;9.70;77.34
61478;BME280;47345;52.334;10.392;2024-03-23T09:42:11;99862.95;;;9.88;77.45
61478;BME280;47345;52.334;10.392;2024-03-23T09:44:41;99860.64;;;10.05;77.43
61478;BME280;47345;52.334;10.392;2024-03-23T09:47:11;99858.80;;;10.21;77.55
61478;BME280;47345;52.334;10.392;2024-03-23T09:49:41;99852.59;;;10.35;77.37
61478;BME280;47345;52.334;10.392;2024-03-23T09:52:11;99851.48;;;10.47;77.18
61478;BME280;47345;52.334;10.392;2024-03-23T09:54:42;99852.14;;;10.51;76.04
61478;BME280;47345;52.334;10.392;2024-03-23T09:57:12;99855.13;;;10.52;76.05
61478;BME280;47345;52.334;10.392;2024-03-23T09:59:42;99850.09;;;10.57;76.01
61478;BME280;47345;52.334;10.392;2024-03-23T10:02:13;99851.66;;;10.66;75.81
61478;BME280;47345;52.334;10.392;2024-03-23T10:04:46;99851.50;;;10.78;75.41
61478;BME280;47345;52.334;10.392;2024-03-23T10:07:18;99853.67;;;10.92;74.34
61478;BME280;47345;52.334;10.392;2024-03-23T10:09:48;99861.31;;;10.75;71.42
61478;BME280;47345;52.334;10.392;2024-03-23T10:12:20;99872.91;;;10.18;68.53
61478;BME280;47345;52.334;10.392;2024-03-23T10:14:53;99861.02;;;9.57;66.94
61478;BME280;47345;52.334;10.392;2024-03-23T10:17:24;99847.68;;;9.14;67.86
61478;BME280;47345;52.334;10.392;2024-03-23T10:19:55;99849.97;;;8.82;69.02
61478;BME280;47345;52.334;10.392;2024-03-23T10:22:26;99858.72;;;8.60;71.45
61478;BME280;47345;52.334;10.392;2024-03-23T10:25:08;99854.59;;;8.47;72.61
61478;BME280;47345;52.334;10.392;2024-03-23T10:27:39;99853.53;;;8.54;73.68
61478;BME280;47345;52.334;10.392;2024-03-23T10:30:14;99848.59;;;8.82;75.11
61478;BME280;47345;52.334;10.392;2024-03-23T10:32:44;99838.87;;;9.19;74.51
61478;BME280;47345;52.334;10.392;2024-03-23T10:35:20;99833.77;;;9.56;74.64
61478;BME280;47345;52.334;10.392;2024-03-23T10:37:52;99856.05;;;9.65;72.94
61478;BME280;47345;52.334;10.392;2024-03-23T10:40:23;99871.31;;;9.41;68.96
61478;BME280;47345;52.334;10.392;2024-03-23T10:42:53;99874.06;;;9.06;66.41
61478;BME280;47345;52.334;10.392;2024-03-23T10:45:28;99871.30;;;8.66;67.67
61478;BME280;47345;52.334;10.392;2024-03-23T10:47:58;99843.58;;;8.43;69.05
61478;BME280;47345;52.334;10.392;2024-03-23T10:50:29;99829.91;;;8.41;67.05
61478;BME280;47345;52.334;10.392;2024-03-23T10:52:59;99833.92;;;8.49;67.57
61478;BME280;47345;52.334;10.392;2024-03-23T10:55:30;99838.14;;;8.65;67.78
61478;BME280;47345;52.334;10.392;2024-03-23T10:58:03;99832.88;;;8.94;70.17
61478;BME280;47345;52.334;10.392;2024-03-23T11:00:33;99829.91;;;9.29;69.89
61478;BME280;47345;52.334;10.392;2024-03-23T11:03:31;99822.48;;;9.69;70.69
61478;BME280;47345;52.334;10.392;2024-03-23T11:06:02;99823.08;;;10.15;70.41
61478;BME280;47345;52.334;10.392;2024-03-23T11:08:33;99818.46;;;10.37;69.17
61478;BME280;47345;52.334;10.392;2024-03-23T11:11:19;99816.17;;;10.57;68.68
61478;BME280;47345;52.334;10.392;2024-03-23T11:13:50;99817.23;;;10.83;67.68
61478;BME280;47345;52.334;10.392;2024-03-23T11:16:25;99815.28;;;11.01;65.71
61478;BME280;47345;52.334;10.392;2024-03-23T11:19:34;99816.70;;;11.14;61.30
61478;BME280;47345;52.334;10.392;2024-03-23T11:22:05;99809.80;;;11.03;60.89
61478;BME280;47345;52.334;10.392;2024-03-23T11:24:36;99817.23;;;10.89;61.32
61478;BME280;47345;52.334;10.392;2024-03-23T11:27:18;99816.92;;;10.87;61.54
61478;BME280;47345;52.334;10.392;2024-03-23T11:29:49;99810.38;;;10.88;59.71
61478;BME280;47345;52.334;10.392;2024-03-23T11:32:19;99806.06;;;10.93;58.75
61478;BME280;47345;52.334;10.392;2024-03-23T11:34:51;99808.63;;;11.10;58.36
61478;BME280;47345;52.334;10.392;2024-03-23T11:37:21;99819.58;;;11.23;59.24
61478;BME280;47345;52.334;10.392;2024-03-23T11:39:51;99846.55;;;11.00;61.79
61478;BME280;47345;52.334;10.392;2024-03-23T11:42:21;99850.85;;;10.33;61.98
61478;BME280;47345;52.334;10.392;2024-03-23T11:44:51;99856.27;;;9.57;64.91
61478;BME280;47345;52.334;10.392;2024-03-23T11:47:21;99863.95;;;8.89;67.44
61478;BME280;47345;52.334;10.392;2024-03-23T11:49:51;99871.52;;;8.33;69.99
61478;BME280;47345;52.334;10.392;2024-03-23T11:52:21;99877.89;;;7.91;71.87
61478;BME280;47345;52.334;10.392;2024-03-23T11:54:51;99877.91;;;7.73;72.91
61478;BME280;47345;52.334;10.392;2024-03-23T11:57:21;99865.71;;;7.85;74.46
61478;BME280;47345;52.334;10.392;2024-03-23T11:59:53;99871.28;;;8.09;74.57
61478;BME280;47345;52.334;10.392;2024-03-23T12:02:23;99871.64;;;8.38;74.71
61478;BME280;47345;52.334;10.392;2024-03-23T12:04:53;99871.06;;;8.54;73.23
61478;BME280;47345;52.334;10.392;2024-03-23T12:07:23;99873.14;;;8.61;73.57
61478;BME280;47345;52.334;10.392;2024-03-23T12:10:05;99872.13;;;8.82;74.02
61478;BME280;47345;52.334;10.392;2024-03-23T12:12:36;99876.51;;;9.03;73.42
61478;BME280;47345;52.334;10.392;2024-03-23T12:15:07;99882.20;;;9.04;71.99
61478;BME280;47345;52.334;10.392;2024-03-23T12:17:37;99890.73;;;8.86;68.89
61478;BME280;47345;52.334;10.392;2024-03-23T12:20:09;99880.25;;;8.54;67.72
61478;BME280;47345;52.334;10.392;2024-03-23T12:22:39;99868.14;;;8.30;67.98
61478;BME280;47345;52.334;10.392;2024-03-23T12:25:09;99849.86;;;8.33;68.62
61478;BME280;47345;52.334;10.392;2024-03-23T12:27:39;99847.62;;;8.52;68.61
61478;BME280;47345;52.334;10.392;2024-03-23T12:30:12;99847.25;;;8.72;68.24
61478;BME280;47345;52.334;10.392;2024-03-23T12:32:42;99851.92;;;9.02;67.99
61478;BME280;47345;52.334;10.392;2024-03-23T12:35:12;99854.30;;;9.63;69.21
61478;BME280;47345;52.334;10.392;2024-03-23T12:37:42;99857.27;;;10.34;68.76
61478;BME280;47345;52.334;10.392;2024-03-23T12:40:13;99862.07;;;10.71;67.48
61478;BME280;47345;52.334;10.392;2024-03-23T12:42:43;99860.79;;;10.60;67.20
61478;BME280;47345;52.334;10.392;2024-03-23T12:45:14;99868.00;;;10.38;68.01
61478;BME280;47345;52.334;10.392;2024-03-23T12:47:44;99869.48;;;10.28;69.09
61478;BME280;47345;52.334;10.392;2024-03-23T12:50:14;99865.77;;;10.26;68.88
61478;BME280;47345;52.334;10.392;2024-03-23T12:52:47;99865.04;;;10.02;68.19
61478;BME280;47345;52.334;10.392;2024-03-23T12:55:19;99870.43;;;9.69;69.07
61478;BME280;47345;52.334;10.392;2024-03-23T12:57:50;99873.14;;;9.38;70.28
61478;BME280;47345;52.334;10.392;2024-03-23T13:04:49;99876.86;;;8.64;71.47
61478;BME280;47345;52.334;10.392;2024-03-23T13:07:20;99876.52;;;8.54;71.37
61478;BME280;47345;52.334;10.392;2024-03-23T13:09:52;99877.67;;;8.61;70.56
61478;BME280;47345;52.334;10.392;2024-03-23T13:12:22;99879.48;;;8.78;70.21
61478;BME280;47345;52.334;10.392;2024-03-23T13:14:52;99880.92;;;9.01;70.29
61478;BME280;47345;52.334;10.392;2024-03-23T13:20:56;99879.85;;;9.35;69.03
61478;BME280;47345;52.334;10.392;2024-03-23T13:23:59;99879.96;;;9.41;68.46
61478;BME280;47345;52.334;10.392;2024-03-23T13:26:29;99874.35;;;9.55;68.45
61478;BME280;47345;52.334;10.392;2024-03-23T13:29:32;99869.38;;;9.65;68.43
61478;BME280;47345;52.334;10.392;2024-03-23T13:32:03;99874.52;;;9.70;68.37
61478;BME280;47345;52.334;10.392;2024-03-23T13:34:36;99874.68;;;9.72;67.64
61478;BME280;47345;52.334;10.392;2024-03-23T13:41:07;99872.25;;;9.56;67.03
61478;BME280;47345;52.334;10.392;2024-03-23T13:43:41;99873.19;;;9.58;67.27
61478;BME280;47345;52.334;10.392;2024-03-23T13:46:11;99864.14;;;9.62;66.63
61478;BME280;47345;52.334;10.392;2024-03-23T13:48:41;99864.94;;;9.67;66.07
61478;BME280;47345;52.334;10.392;2024-03-23T13:51:32;99858.52;;;9.76;65.77
61478;BME280;47345;52.334;10.392;2024-03-23T13:54:02;99865.30;;;9.89;65.63
61478;BME280;47345;52.334;10.392;2024-03-23T13:56:32;99862.37;;;10.02;65.77
61478;BME280;47345;52.334;10.392;2024-03-23T13:59:09;99859.45;;;10.14;65.80
61478;BME280;47345;52.334;10.392;2024-03-23T14:01:40;99847.91;;;10.37;65.66
61478;BME280;47345;52.334;10.392;2024-03-23T14:04:11;99844.29;;;10.63;64.95
61478;BME280;47345;52.334;10.392;2024-03-23T14:06:40;99840.31;;;10.81;64.07
61478;BME280;47345;52.334;10.392;2024-03-23T14:09:11;99839.18;;;10.90;62.73
61478;BME280;47345;52.334;10.392;2024-03-23T14:11:41;99845.17;;;10.96;62.88
61478;BME280;47345;52.334;10.392;2024-03-23T14:14:14;99844.02;;;10.89;62.12
61478;BME280;47345;52.334;10.392;2024-03-23T14:16:45;99848.70;;;10.70;60.56
61478;BME280;47345;52.334;10.392;2024-03-23T14:19:15;99851.77;;;10.61;60.38
61478;BME280;47345;52.334;10.392;2024-03-23T14:21:45;99855.55;;;10.55;61.10
61478;BME280;47345;52.334;10.392;2024-03-23T14:24:15;99862.21;;;10.54;60.63
61478;BME280;47345;52.334;10.392;2024-03-23T14:26:45;99853.46;;;10.59;61.10